Time;durP1;ratioP1;P1;durP2;ratioP2;P2;SDS_P1;SDS_P2;PMS_P1;PMS_P2;Temp;Humidity;BMP_temperature;BMP_pressure;BME280_temperature;BME280_humidity;BME280_pressure;Samples;Min_cycle;Max_cycle;Signal;HPM_P1;HPM_P2
2023/03/23 00:01:36;;;;;;;4.13;1.60;;;;;;;11.50;100.00;95665.66;4937226;29;20078;-88
2023/03/23 00:04:06;;;;;;;5.53;1.60;;;;;;;11.46;100.00;95677.53;4914716;29;20031;-88
2023/03/23 00:06:32;;;;;;;4.73;1.70;;;;;;;11.55;100.00;95663.28;4914910;29;20027;-88
2023/03/23 00:09:08;;;;;;;3.67;1.57;;;;;;;11.59;100.00;95668.22;4925466;29;20023;-88
2023/03/23 00:11:33;;;;;;;3.63;1.80;;;;;;;11.61;100.00;95668.84;4938350;29;20031;-88
2023/03/23 00:14:01;;;;;;;3.33;1.60;;;;;;;11.63;100.00;95669.47;4928327;29;20874;-88
2023/03/23 00:16:30;;;;;;;4.27;1.60;;;;;;;11.62;100.00;95667.84;4925647;29;20035;-88
2023/03/23 00:19:03;;;;;;;3.53;1.77;;;;;;;11.62;100.00;95668.66;4929174;29;20220;-88
2023/03/23 00:21:34;;;;;;;4.57;1.90;;;;;;;11.68;100.00;95667.13;4924760;29;20047;-89
2023/03/23 00:24:08;;;;;;;4.33;1.67;;;;;;;11.66;100.00;95669.13;4966199;28;20037;-89
2023/03/23 00:26:39;;;;;;;3.93;1.70;;;;;;;11.67;100.00;95679.50;4923720;29;20115;-89
2023/03/23 00:29:07;;;;;;;3.90;1.70;;;;;;;11.80;100.00;95663.88;4935757;29;20043;-89
2023/03/23 00:31:35;;;;;;;3.73;1.50;;;;;;;11.83;100.00;95665.31;4950015;29;20142;-88
2023/03/23 00:34:12;;;;;;;2.57;1.40;;;;;;;11.78;100.00;95650.06;4942487;29;20031;-89
2023/03/23 00:37:03;;;;;;;5.07;1.90;;;;;;;11.78;100.00;95649.25;4957848;28;20039;-89
2023/03/23 00:39:48;;;;;;;3.50;1.40;;;;;;;11.71;100.00;95667.59;4948237;29;20098;-88
2023/03/23 00:42:15;;;;;;;2.67;1.57;;;;;;;11.79;100.00;95659.59;4924572;29;20038;-88
2023/03/23 00:44:46;;;;;;;5.33;1.23;;;;;;;11.76;100.00;95648.59;4939375;29;20031;-89
2023/03/23 00:47:14;;;;;;;4.20;1.37;;;;;;;11.78;100.00;95647.44;4934843;29;20039;-89
2023/03/23 00:49:40;;;;;;;5.90;1.77;;;;;;;11.85;100.00;95646.75;4923488;29;20046;-88
2023/03/23 00:52:07;;;;;;;3.77;1.80;;;;;;;11.83;100.00;95638.97;4933532;29;20035;-89
2023/03/23 00:54:34;;;;;;;3.47;1.50;;;;;;;11.79;100.00;95630.63;4923350;29;20032;-89
2023/03/23 00:56:59;;;;;;;3.27;1.40;;;;;;;11.71;100.00;95638.63;4926125;29;20043;-88
2023/03/23 00:59:26;;;;;;;3.33;1.40;;;;;;;11.68;100.00;95627.63;4925723;29;20058;-88
2023/03/23 01:01:51;;;;;;;5.40;1.73;;;;;;;11.71;100.00;95625.44;4939889;29;20131;-89
2023/03/23 01:04:18;;;;;;;4.47;1.50;;;;;;;11.85;100.00;95625.66;4921982;29;20031;-89
2023/03/23 01:06:47;;;;;;;3.40;1.50;;;;;;;11.83;100.00;95638.16;4923149;29;20130;-89
2023/03/23 01:09:16;;;;;;;7.63;1.83;;;;;;;11.81;100.00;95635.72;4929843;29;20020;-89
2023/03/23 01:11:46;;;;;;;4.27;1.40;;;;;;;11.83;100.00;95633.72;4925470;29;20038;-88
2023/03/23 01:14:15;;;;;;;4.23;1.57;;;;;;;11.85;100.00;95626.47;4916987;29;20031;-88
2023/03/23 01:16:41;;;;;;;3.70;1.60;;;;;;;11.78;100.00;95623.72;4934642;29;20031;-89
2023/03/23 01:19:06;;;;;;;3.20;1.40;;;;;;;11.84;100.00;95611.69;4927235;29;20031;-89
2023/03/23 01:21:36;;;;;;;3.20;1.50;;;;;;;11.80;100.00;95607.72;4925696;29;20102;-90
2023/03/23 01:24:02;;;;;;;3.83;1.80;;;;;;;11.79;100.00;95609.53;4934992;29;20039;-89
2023/03/23 01:26:28;;;;;;;4.30;2.17;;;;;;;11.79;100.00;95600.81;4934812;29;20119;-89
2023/03/23 01:28:55;;;;;;;5.60;1.93;;;;;;;11.74;100.00;95604.03;4939789;29;20130;-89
2023/03/23 01:31:23;;;;;;;4.10;1.60;;;;;;;11.80;100.00;95602.44;4924830;29;20027;-89
2023/03/23 01:33:56;;;;;;;3.60;1.60;;;;;;;11.84;100.00;95609.06;4929873;29;20046;-89
2023/03/23 01:36:26;;;;;;;;;;;;;;;11.75;100.00;95603.00;4918790;29;20722;-88
2023/03/23 01:38:54;;;;;;;3.30;1.53;;;;;;;11.75;100.00;95605.66;4927531;29;20517;-89
2023/03/23 01:41:29;;;;;;;3.40;1.73;;;;;;;11.76;100.00;95596.75;4945662;29;20015;-89
2023/03/23 01:44:19;;;;;;;3.97;2.10;;;;;;;11.73;100.00;95591.81;4937009;29;20095;-89
2023/03/23 01:46:55;;;;;;;4.47;1.70;;;;;;;11.75;100.00;95591.66;4936250;29;20095;-88
2023/03/23 01:49:45;;;;;;;3.77;1.60;;;;;;;11.78;100.00;95591.31;4928125;29;20031;-89
2023/03/23 01:52:18;;;;;;;3.03;1.67;;;;;;;11.75;100.00;95589.84;4926304;29;20119;-88
2023/03/23 01:54:48;;;;;;;4.30;1.80;;;;;;;11.75;100.00;95595.09;4924211;29;20049;-88
2023/03/23 01:57:21;;;;;;;3.03;1.50;;;;;;;11.66;100.00;95590.91;4937188;29;20039;-89
2023/03/23 01:59:52;;;;;;;;;;;;;;;11.72;100.00;95589.38;4918757;29;20062;-89
2023/03/23 02:02:24;;;;;;;8.70;2.20;;;;;;;11.60;100.00;95593.47;4936419;29;19997;-89
2023/03/23 02:04:55;;;;;;;3.77;1.80;;;;;;;11.52;100.00;95589.91;4922787;29;20126;-89
2023/03/23 02:07:24;;;;;;;3.85;1.45;;;;;;;11.52;100.00;95584.66;4949404;29;20027;-88
2023/03/23 02:09:52;;;;;;;3.53;1.63;;;;;;;11.51;100.00;95577.75;4951721;29;20070;-88
2023/03/23 02:12:18;;;;;;;4.97;1.73;;;;;;;11.47;100.00;95576.50;4923366;29;20110;-88
2023/03/23 02:14:46;;;;;;;2.40;1.20;;;;;;;11.55;100.00;95573.75;4937147;29;20037;-89
2023/03/23 02:17:12;;;;;;;3.03;1.63;;;;;;;11.60;100.00;95575.84;4924558;29;20039;-88
2023/03/23 02:19:46;;;;;;;4.17;2.00;;;;;;;11.52;100.00;95573.31;4940928;29;20070;-88
2023/03/23 02:22:33;;;;;;;4.27;1.60;;;;;;;11.40;100.00;95569.47;4940203;29;20039;-88
2023/03/23 02:25:26;;;;;;;3.53;1.70;;;;;;;11.40;100.00;95559.78;4955998;28;20062;-89
2023/03/23 02:28:17;;;;;;;4.40;1.77;;;;;;;11.29;100.00;95555.75;4951368;28;20041;-88
2023/03/23 02:31:07;;;;;;;7.07;2.00;;;;;;;11.35;100.00;95550.78;4934565;29;20075;-88
2023/03/23 02:33:56;;;;;;;4.23;1.97;;;;;;;11.44;100.00;95554.97;4948405;29;20035;-88
2023/03/23 02:36:34;;;;;;;4.13;2.40;;;;;;;11.44;100.00;95553.16;4924178;29;20047;-88
2023/03/23 02:39:21;;;;;;;3.67;1.63;;;;;;;11.48;100.00;95551.78;4947181;28;20577;-89
2023/03/23 02:41:54;;;;;;;2.63;1.63;;;;;;;11.46;100.00;95552.97;4954462;29;20094;-88
2023/03/23 02:44:23;;;;;;;2.33;1.33;;;;;;;11.47;100.00;95544.91;4927596;29;20449;-89
2023/03/23 02:46:53;;;;;;;3.10;1.60;;;;;;;11.52;100.00;95552.25;4927080;29;20085;-88
2023/03/23 02:49:20;;;;;;;4.10;1.47;;;;;;;11.57;100.00;95555.16;4939110;29;20046;-89
2023/03/23 02:51:49;;;;;;;5.23;2.40;;;;;;;11.57;100.00;95552.53;4929422;29;20042;-89
2023/03/23 02:54:18;;;;;;;3.47;1.70;;;;;;;11.55;100.00;95549.25;4928273;29;20035;-88
2023/03/23 02:56:44;;;;;;;4.57;1.43;;;;;;;11.55;100.00;95554.53;4959088;28;20041;-89
2023/03/23 02:59:19;;;;;;;5.97;1.93;;;;;;;11.53;100.00;95549.41;4954747;29;20011;-89
2023/03/23 03:01:54;;;;;;;5.13;2.00;;;;;;;11.52;100.00;95558.31;4966443;29;20038;-89
2023/03/23 03:04:25;;;;;;;4.53;1.73;;;;;;;11.45;100.00;95549.53;4930769;29;20031;-89
2023/03/23 03:07:29;;;;;;;5.03;1.90;;;;;;;11.48;100.00;95546.53;4929132;29;20031;-88
2023/03/23 03:10:01;;;;;;;;;;;;;;;11.45;100.00;95544.25;4868009;29;20040;-88
2023/03/23 03:12:57;;;;;;;6.37;2.83;;;;;;;11.48;100.00;95533.38;4867019;29;19962;-88
2023/03/23 03:15:36;;;;;;;3.73;1.50;;;;;;;11.56;100.00;95532.44;4904617;29;20050;-88
2023/03/23 03:18:05;;;;;;;5.93;1.90;;;;;;;11.39;100.00;95520.47;4933433;29;20035;-88
2023/03/23 03:20:35;;;;;;;5.77;1.80;;;;;;;11.29;100.00;95528.63;4929742;29;20038;-88
2023/03/23 03:23:01;;;;;;;4.03;1.47;;;;;;;11.35;100.00;95517.38;4927095;29;20323;-88
2023/03/23 03:25:30;;;;;;;4.80;2.13;;;;;;;11.30;100.00;95517.94;4928409;29;20058;-88
2023/03/23 03:27:58;;;;;;;4.40;1.60;;;;;;;11.32;100.00;95515.94;4942888;29;20576;-88
2023/03/23 03:30:39;;;;;;;4.47;1.70;;;;;;;11.40;100.00;95515.03;4943560;29;20046;-89
2023/03/23 03:33:05;;;;;;;4.73;1.80;;;;;;;11.44;100.00;95512.84;4954912;29;20102;-89
2023/03/23 03:35:37;;;;;;;4.50;1.47;;;;;;;11.47;100.00;95513.31;4947612;29;20568;-88
2023/03/23 03:38:08;;;;;;;4.53;1.47;;;;;;;11.49;100.00;95510.47;4924397;29;20046;-88
2023/03/23 03:40:35;;;;;;;4.57;1.20;;;;;;;11.62;100.00;95512.47;4928553;29;20179;-88
2023/03/23 03:43:01;;;;;;;4.30;1.30;;;;;;;11.73;100.00;95522.53;4927138;29;20054;-88
2023/03/23 03:45:30;;;;;;;4.53;1.30;;;;;;;11.76;100.00;95512.44;4943922;29;20039;-88
2023/03/23 03:47:56;;;;;;;1.83;1.00;;;;;;;11.83;100.00;95517.78;4929717;29;20038;-88
2023/03/23 03:50:49;;;;;;;3.90;1.27;;;;;;;11.90;100.00;95508.19;4925617;28;20118;-88
2023/03/23 03:53:14;;;;;;;3.33;1.53;;;;;;;11.91;100.00;95504.56;4929528;29;20035;-88
2023/03/23 03:55:45;;;;;;;1.83;1.10;;;;;;;12.10;100.00;95507.59;4957442;29;20477;-88
2023/03/23 03:58:12;;;;;;;2.53;1.13;;;;;;;12.10;100.00;95507.59;4926902;29;20027;-88
2023/03/23 04:01:03;;;;;;;3.60;1.27;;;;;;;12.10;100.00;95502.31;4944918;29;20049;-88
2023/03/23 04:03:37;;;;;;;3.70;0.97;;;;;;;12.13;100.00;95499.31;4944186;29;20035;-88
2023/03/23 04:06:18;;;;;;;1.63;0.85;;;;;;;12.17;100.00;95495.28;4928299;29;20031;-88
2023/03/23 04:08:44;;;;;;;3.90;1.60;;;;;;;12.13;100.00;95502.75;4927704;29;20067;-89
2023/03/23 04:11:41;;;;;;;3.63;1.50;;;;;;;12.21;100.00;95502.66;4921039;29;20031;-88
2023/03/23 04:14:33;;;;;;;2.17;1.07;;;;;;;12.20;100.00;95508.09;4928387;29;20078;-88
2023/03/23 04:16:59;;;;;;;2.27;1.10;;;;;;;12.25;100.00;95500.47;4943533;29;20023;-88
2023/03/23 04:19:25;;;;;;;4.10;1.40;;;;;;;12.19;100.00;95501.22;4951496;28;20039;-89
2023/03/23 04:21:54;;;;;;;5.93;2.10;;;;;;;12.21;100.00;95507.13;4943551;29;20031;-88
2023/03/23 04:24:24;;;;;;;3.27;1.73;;;;;;;12.23;100.00;95499.81;4926004;29;20114;-89
2023/03/23 04:27:00;;;;;;;5.67;2.50;;;;;;;12.26;100.00;95502.09;4932109;29;20027;-89
2023/03/23 04:29:28;;;;;;;9.50;3.00;;;;;;;12.25;100.00;95500.47;4948635;29;20088;-89
2023/03/23 04:32:03;;;;;;;3.90;2.00;;;;;;;12.35;100.00;95503.59;4935124;29;20035;-89
2023/03/23 04:34:35;;;;;;;3.75;1.80;;;;;;;12.35;100.00;95506.25;4939862;29;20039;-90
2023/03/23 04:37:03;;;;;;;4.30;1.70;;;;;;;12.39;100.00;95504.03;4939721;29;20058;-89
2023/03/23 04:39:33;;;;;;;5.13;2.03;;;;;;;12.38;100.00;95503.22;4950434;29;20035;-89
2023/03/23 04:42:02;;;;;;;4.90;2.20;;;;;;;12.45;100.00;95496.19;4945780;29;20028;-89
2023/03/23 04:44:55;;;;;;;4.70;1.90;;;;;;;12.46;100.00;95500.44;4931337;29;20035;-89
2023/03/23 04:47:30;;;;;;;3.50;1.67;;;;;;;12.52;100.00;95493.63;4944489;29;20114;-89
2023/03/23 04:49:58;;;;;;;6.83;2.50;;;;;;;12.49;100.00;95492.16;4917744;29;20031;-89
2023/03/23 04:52:30;;;;;;;3.50;1.50;;;;;;;12.49;100.00;95492.16;4922958;29;20482;-89
2023/03/23 04:54:58;;;;;;;6.30;1.60;;;;;;;12.52;100.00;95490.97;4921189;29;20390;-89
2023/03/23 04:57:27;;;;;;;3.17;1.30;;;;;;;12.53;100.00;95497.88;4921627;29;20360;-89
2023/03/23 05:00:17;;;;;;;2.83;1.07;;;;;;;12.59;100.00;95491.03;4952744;29;20036;-89
2023/03/23 05:02:51;;;;;;;6.13;2.77;;;;;;;12.65;100.00;95498.19;4933969;29;20031;-89
2023/03/23 05:05:20;;;;;;;3.33;1.33;;;;;;;12.64;100.00;95497.38;4937043;29;20055;-90
2023/03/23 05:07:46;;;;;;;2.50;1.27;;;;;;;12.68;100.00;95493.34;4954974;28;20099;-89
2023/03/23 05:10:16;;;;;;;1.97;1.10;;;;;;;12.69;100.00;95502.91;4922957;29;20028;-89
2023/03/23 05:12:45;;;;;;;3.13;1.20;;;;;;;12.67;100.00;95501.44;4941489;29;20046;-89
2023/03/23 05:15:14;;;;;;;5.33;1.60;;;;;;;12.68;100.00;95500.47;4928390;29;20070;-89
2023/03/23 05:17:45;;;;;;;3.47;1.10;;;;;;;12.67;100.00;95504.91;4927504;29;20047;-89
2023/03/23 05:20:18;;;;;;;2.78;1.20;;;;;;;12.70;100.00;95506.34;4940319;29;20028;-89
2023/03/23 05:22:50;;;;;;;2.33;1.10;;;;;;;12.64;100.00;95499.19;4932320;29;20099;-89
2023/03/23 05:25:23;;;;;;;1.97;1.30;;;;;;;12.65;100.00;95498.19;4938592;29;20031;-88
2023/03/23 05:28:24;;;;;;;3.60;1.40;;;;;;;12.70;100.00;95493.16;4947282;29;20032;-89
2023/03/23 05:30:57;;;;;;;3.27;1.30;;;;;;;12.66;100.00;95497.19;4942355;29;20046;-89
2023/03/23 05:33:43;;;;;;;3.63;1.33;;;;;;;12.65;100.00;95490.28;4933920;29;20099;-89
2023/03/23 05:36:14;;;;;;;2.47;1.10;;;;;;;12.65;100.00;95485.00;4931894;29;20035;-90
2023/03/23 05:39:04;;;;;;;4.73;1.80;;;;;;;12.66;100.00;95494.53;4926533;29;20036;-89
2023/03/23 05:41:48;;;;;;;1.80;1.13;;;;;;;12.66;100.00;95500.63;4927157;29;20035;-89
2023/03/23 05:44:18;;;;;;;3.60;1.10;;;;;;;12.67;100.00;95489.06;4921845;29;20035;-89
2023/03/23 05:46:50;;;;;;;3.42;1.30;;;;;;;12.64;100.00;95497.38;4923761;29;20080;-90
2023/03/23 05:49:16;;;;;;;2.70;1.50;;;;;;;12.65;100.00;95493.72;4927025;29;20062;-89
2023/03/23 05:51:45;;;;;;;5.50;2.17;;;;;;;12.61;100.00;95492.50;4925176;29;20039;-90
2023/03/23 05:54:14;;;;;;;3.93;1.73;;;;;;;12.55;100.00;95489.78;4920895;29;20140;-89
2023/03/23 05:56:40;;;;;;;3.23;1.60;;;;;;;12.59;100.00;95491.03;4923281;29;20039;-90
2023/03/23 05:59:38;;;;;;;4.47;1.50;;;;;;;12.61;100.00;95486.38;4910588;29;20042;-90
2023/03/23 06:02:10;;;;;;;2.77;1.20;;;;;;;12.62;100.00;95490.66;4926073;29;20497;-90
2023/03/23 06:04:37;;;;;;;3.23;1.20;;;;;;;12.66;100.00;95491.91;4929977;29;20382;-88
2023/03/23 06:07:18;;;;;;;4.73;1.30;;;;;;;12.66;100.00;95491.91;4954012;28;20054;-89
2023/03/23 06:09:52;;;;;;;5.33;1.73;;;;;;;12.69;100.00;95484.44;4920833;29;20524;-88
2023/03/23 06:12:31;;;;;;;2.73;1.30;;;;;;;12.71;100.00;95487.69;4939164;29;20044;-88
2023/03/23 06:15:15;;;;;;;4.70;1.50;;;;;;;12.72;100.00;95485.88;4943601;29;20090;-89
2023/03/23 06:18:12;;;;;;;3.73;1.27;;;;;;;12.76;100.00;95487.13;4908540;29;20052;-89
2023/03/23 06:21:00;;;;;;;4.67;1.50;;;;;;;12.77;100.00;95494.03;4923667;29;20039;-89
2023/03/23 06:23:46;;;;;;;2.60;1.20;;;;;;;12.79;100.00;95494.66;4927282;29;20035;-89
2023/03/23 06:26:16;;;;;;;4.37;1.43;;;;;;;12.78;100.00;95502.78;4938738;29;20117;-89
2023/03/23 06:28:44;;;;;;;3.37;1.60;;;;;;;12.85;100.00;95503.63;4935196;29;20430;-89
2023/03/23 06:31:17;;;;;;;4.83;1.50;;;;;;;12.82;100.00;95496.91;4925659;29;20389;-91
2023/03/23 06:33:43;;;;;;;2.78;1.30;;;;;;;12.80;100.00;95498.91;4924248;29;20430;-88
2023/03/23 06:36:26;;;;;;;2.33;1.17;;;;;;;12.95;100.00;95502.28;4940691;29;20039;-88
2023/03/23 06:39:17;;;;;;;3.37;1.33;;;;;;;13.01;100.00;95505.16;4936694;29;20039;-88
2023/03/23 06:41:57;;;;;;;5.10;1.60;;;;;;;13.03;100.00;95516.34;4926381;29;20067;-89
2023/03/23 06:44:22;;;;;;;4.83;1.67;;;;;;;12.98;100.00;95511.66;4940443;29;20509;-89
2023/03/23 06:46:48;;;;;;;3.53;1.40;;;;;;;13.07;100.00;95509.69;4930657;29;20039;-89
2023/03/23 06:49:34;;;;;;;4.03;1.87;;;;;;;13.14;100.00;95515.81;4937341;29;20038;-88
2023/03/23 06:52:18;;;;;;;4.73;1.73;;;;;;;13.19;100.00;95524.78;4944557;29;20059;-89
2023/03/23 06:54:44;;;;;;;4.63;1.60;;;;;;;13.24;100.00;95521.59;4921480;29;22417;-89
2023/03/23 06:57:11;;;;;;;8.13;1.80;;;;;;;13.25;100.00;95517.97;4939246;29;20038;-89
2023/03/23 06:59:37;;;;;;;8.27;3.50;;;;;;;13.20;100.00;95515.03;4932974;29;20922;-89
2023/03/23 07:02:04;;;;;;;8.00;1.97;;;;;;;13.23;100.00;95521.78;4921528;29;20027;-89
2023/03/23 07:04:31;;;;;;;4.23;1.47;;;;;;;13.25;100.00;95517.16;4929681;29;20292;-89
2023/03/23 07:07:07;;;;;;;7.03;1.63;;;;;;;13.26;100.00;95514.31;4932771;29;20023;-89
2023/03/23 07:09:42;;;;;;;2.20;1.43;;;;;;;13.28;100.00;95509.66;4936294;29;20082;-89
2023/03/23 07:12:08;;;;;;;4.10;1.80;;;;;;;13.32;100.00;95508.25;4970789;28;20023;-89
2023/03/23 07:14:39;;;;;;;4.57;2.00;;;;;;;13.37;100.00;95519.03;4924158;29;20028;-89
2023/03/23 07:17:07;;;;;;;4.57;1.93;;;;;;;13.37;100.00;95520.88;4917398;29;20091;-89
2023/03/23 07:19:36;;;;;;;4.20;1.80;;;;;;;13.41;100.00;95528.22;4928936;29;20032;-89
2023/03/23 07:22:07;;;;;;;4.53;1.80;;;;;;;13.36;100.00;95524.53;4914528;29;20037;-89
2023/03/23 07:24:34;;;;;;;4.73;1.80;;;;;;;13.37;100.00;95526.16;4918356;29;20047;-89
2023/03/23 07:27:20;;;;;;;3.87;1.77;;;;;;;13.49;100.00;95531.72;4934185;29;20064;-89
2023/03/23 07:29:55;;;;;;;5.33;2.10;;;;;;;13.66;100.00;95535.69;4921201;29;20028;-89
2023/03/23 07:32:35;;;;;;;4.10;1.70;;;;;;;13.74;100.00;95532.84;4938741;29;20035;-89
2023/03/23 07:35:01;;;;;;;4.40;1.80;;;;;;;13.77;100.00;95536.94;4916867;29;20059;-89
2023/03/23 07:37:51;;;;;;;3.67;1.70;;;;;;;13.83;100.00;95546.75;4931016;29;20031;-89
2023/03/23 07:40:18;;;;;;;3.83;2.00;;;;;;;13.94;100.00;95543.53;4924139;29;20027;-89
2023/03/23 07:42:56;;;;;;;5.17;2.00;;;;;;;13.88;100.00;95549.59;4922408;29;20077;-89
2023/03/23 07:45:53;;;;;;;8.17;2.10;;;;;;;13.89;100.00;95552.06;4910854;29;20191;-89
2023/03/23 07:48:23;;;;;;;6.50;2.00;;;;;;;14.06;100.00;95554.38;4938501;29;20035;-89
2023/03/23 07:50:53;;;;;;;5.47;2.00;;;;;;;14.06;100.00;95562.28;4928492;29;20030;-89
2023/03/23 07:53:46;;;;;;;4.07;2.27;;;;;;;14.04;100.00;95561.66;4938421;29;20048;-89
2023/03/23 07:56:39;;;;;;;4.60;2.60;;;;;;;14.08;100.00;95563.75;4941365;28;20034;-90
2023/03/23 07:59:35;;;;;;;2.93;1.47;;;;;;;14.12;100.00;95567.63;4929647;29;20883;-88
2023/03/23 08:02:01;;;;;;;5.93;2.37;;;;;;;14.19;100.00;95562.34;4922359;29;20035;-88
2023/03/23 08:04:36;;;;;;;4.47;2.37;;;;;;;14.21;100.00;95568.25;4923245;29;20409;-88
2023/03/23 08:07:19;;;;;;;3.97;2.17;;;;;;;14.18;100.00;95566.00;4935246;29;20031;-89
2023/03/23 08:09:58;;;;;;;2.42;1.25;;;;;;;14.27;100.00;95558.72;4940278;29;20074;-89
2023/03/23 08:13:01;;;;;;;3.20;1.63;;;;;;;14.28;100.00;95569.06;4916888;29;20039;-89
2023/03/23 08:15:51;;;;;;;4.17;1.70;;;;;;;14.44;100.00;95567.91;4951956;29;20457;-89
2023/03/23 08:18:40;;;;;;;3.60;1.50;;;;;;;14.63;100.00;95579.59;4917848;29;20498;-88
2023/03/23 08:21:38;;;;;;;2.47;1.50;;;;;;;14.59;100.00;95568.59;4941951;29;20035;-89
2023/03/23 08:24:23;;;;;;;3.00;1.63;;;;;;;14.65;100.00;95571.44;4939659;29;20114;-89
2023/03/23 08:26:57;;;;;;;3.10;1.70;;;;;;;14.61;100.00;95574.50;4938249;29;20113;-89
2023/03/23 08:29:23;;;;;;;5.87;1.70;;;;;;;14.70;100.00;95580.41;4939920;29;20075;-88
2023/03/23 08:31:57;;;;;;;4.60;1.63;;;;;;;14.77;100.00;95578.59;4939218;29;20042;-88
2023/03/23 08:34:45;;;;;;;;;;;;;;;14.80;100.00;95580.84;4933527;29;20070;-88
2023/03/23 08:37:38;;;;;;;3.33;1.63;;;;;;;14.89;100.00;95584.13;4920449;29;19966;-89
2023/03/23 08:40:21;;;;;;;4.07;1.60;;;;;;;14.73;100.00;95585.31;4936165;29;20075;-88
2023/03/23 08:43:07;;;;;;;5.80;1.90;;;;;;;14.87;100.00;95596.75;4936381;29;20075;-88
2023/03/23 08:45:55;;;;;;;6.87;3.07;;;;;;;14.89;100.00;95601.81;4918937;29;20042;-88
2023/03/23 08:48:54;;;;;;;3.37;1.57;;;;;;;15.03;100.00;95614.88;4903352;29;20417;-88
2023/03/23 08:51:48;;;;;;;3.53;1.40;;;;;;;15.14;100.00;95613.47;4921176;29;20047;-89
2023/03/23 08:54:37;;;;;;;3.00;1.40;;;;;;;15.13;100.00;95611.84;4932496;29;20401;-88
2023/03/23 08:57:22;;;;;;;4.70;1.60;;;;;;;15.27;100.00;95615.31;4921244;29;20035;-88
2023/03/23 09:00:18;;;;;;;3.85;1.60;;;;;;;15.23;100.00;95614.91;4944867;29;20144;-88
2023/03/23 09:03:03;;;;;;;7.27;3.47;;;;;;;15.56;100.00;95616.75;4942816;29;20058;-88
2023/03/23 09:05:59;;;;;;;15.53;9.53;;;;;;;15.69;100.00;95616.75;4923835;29;20067;-89
2023/03/23 09:08:38;;;;;;;5.10;1.67;;;;;;;15.83;100.00;95617.56;4933675;29;20039;-89
2023/03/23 09:11:06;;;;;;;2.97;1.30;;;;;;;15.93;100.00;95607.31;4919625;29;20031;-89
2023/03/23 09:13:34;;;;;;;4.93;1.40;;;;;;;15.56;100.00;95611.44;4921152;29;20078;-89
2023/03/23 09:16:01;;;;;;;3.80;1.60;;;;;;;15.56;100.00;95612.25;4920999;29;20098;-88
2023/03/23 09:18:27;;;;;;;8.10;1.87;;;;;;;15.69;100.00;95616.75;4925817;29;20036;-89
2023/03/23 09:20:56;;;;;;;5.27;1.73;;;;;;;15.62;100.00;95618.53;4919857;29;20082;-89
2023/03/23 09:23:34;;;;;;;4.73;1.90;;;;;;;15.70;100.00;95631.63;4933066;29;20042;-89
2023/03/23 09:26:02;;;;;;;2.97;1.53;;;;;;;15.59;100.00;95626.09;4928952;29;20095;-89
2023/03/23 09:28:29;;;;;;;3.77;1.50;;;;;;;15.61;100.00;95630.19;4921098;29;20035;-88
2023/03/23 09:30:59;;;;;;;5.03;1.90;;;;;;;15.74;100.00;95635.50;4917324;29;20039;-89
2023/03/23 09:33:26;;;;;;;3.57;1.50;;;;;;;15.70;100.00;95631.63;4928849;29;20051;-89
2023/03/23 09:35:56;;;;;;;4.27;1.70;;;;;;;15.72;100.00;95637.53;4922721;29;20472;-89
2023/03/23 09:38:22;;;;;;;3.67;1.63;;;;;;;16.06;100.00;95638.28;4931382;29;20042;-88
2023/03/23 09:41:22;;;;;;;2.60;1.27;;;;;;;15.98;100.00;95649.13;4941545;29;20039;-89
2023/03/23 09:47:28;;;;;;;2.47;1.35;;;;;;;15.45;100.00;95657.09;4970144;28;20114;-89
2023/03/23 09:49:59;;;;;;;4.87;1.60;;;;;;;15.52;100.00;95663.19;4932173;29;20114;-89
2023/03/23 09:52:46;;;;;;;4.07;1.30;;;;;;;15.57;100.00;95666.06;4922124;29;20042;-88
2023/03/23 09:55:16;;;;;;;4.90;1.50;;;;;;;15.32;100.00;95671.97;4924734;29;20035;-89
2023/03/23 09:57:47;;;;;;;4.17;1.83;;;;;;;15.09;100.00;95666.25;4920238;29;20034;-89
2023/03/23 10:00:19;;;;;;;5.83;1.67;;;;;;;15.35;100.00;95673.38;4920599;29;20038;-89
2023/03/23 10:03:14;;;;;;;6.70;2.22;;;;;;;15.12;100.00;95675.59;4933092;29;20035;-88
2023/03/23 10:05:47;;;;;;;9.07;6.07;;;;;;;15.21;100.00;95675.22;4935601;29;20549;-89
2023/03/23 10:08:24;;;;;;;5.78;2.70;;;;;;;15.05;100.00;95684.34;4926482;29;20058;-89
2023/03/23 10:11:03;;;;;;;3.77;1.53;;;;;;;15.11;100.00;95679.28;4922524;29;20031;-88
2023/03/23 10:14:10;;;;;;;3.60;1.57;;;;;;;15.25;100.00;95678.25;4935249;29;20035;-88
2023/03/23 10:16:47;;;;;;;3.47;1.80;;;;;;;15.35;100.00;95683.16;4962413;28;20075;-89
2023/03/23 10:19:21;;;;;;;5.10;1.67;;;;;;;15.28;100.00;95678.66;4920395;29;20648;-88
2023/03/23 10:22:09;;;;;;;8.20;2.17;;;;;;;15.33;100.00;95676.25;4933938;29;20054;-88
2023/03/23 10:24:57;;;;;;;2.93;1.60;;;;;;;15.14;100.00;95681.53;4913096;29;20047;-89
2023/03/23 10:27:38;;;;;;;3.87;1.50;;;;;;;15.21;100.00;95680.50;4922591;29;20737;-88
2023/03/23 10:30:13;;;;;;;4.87;1.60;;;;;;;15.11;100.00;95680.09;4931965;29;20530;-88
2023/03/23 10:32:49;;;;;;;4.00;1.43;;;;;;;15.13;100.00;95680.72;4916917;29;20031;-89
2023/03/23 10:35:45;;;;;;;3.63;1.50;;;;;;;15.20;100.00;95686.81;4935375;29;20071;-89
2023/03/23 10:38:17;;;;;;;5.13;1.70;;;;;;;15.20;100.00;95681.53;4932461;29;20070;-88
2023/03/23 10:41:11;;;;;;;3.00;1.65;;;;;;;15.15;100.00;95694.53;4918234;29;20042;-88
2023/03/23 10:43:49;;;;;;;5.77;1.70;;;;;;;14.99;100.00;95684.31;4914583;29;20043;-89
2023/03/23 10:46:33;;;;;;;3.10;1.43;;;;;;;15.01;100.00;95683.13;4920412;29;20039;-88
2023/03/23 10:49:02;;;;;;;3.10;1.20;;;;;;;15.01;100.00;95693.69;4962655;28;20051;-89
2023/03/23 10:51:36;;;;;;;2.43;1.43;;;;;;;15.15;100.00;95693.72;4939669;29;20122;-88
2023/03/23 10:54:09;;;;;;;3.43;1.53;;;;;;;15.14;100.00;95700.88;4920823;29;20035;-88
2023/03/23 10:56:40;;;;;;;5.68;2.15;;;;;;;15.16;100.00;95693.56;4954192;29;20036;-89
2023/03/23 10:59:26;;;;;;;3.47;1.47;;;;;;;15.21;100.00;95707.00;4953942;29;20046;-88
2023/03/23 11:01:55;;;;;;;3.73;1.63;;;;;;;15.20;100.00;95708.00;4940910;29;20042;-89
2023/03/23 11:04:23;;;;;;;3.42;1.60;;;;;;;15.06;100.00;95712.47;4923869;29;20031;-88
2023/03/23 11:06:52;;;;;;;4.70;1.63;;;;;;;15.11;100.00;95708.41;4938555;29;20086;-88
2023/03/23 11:09:32;;;;;;;5.00;1.50;;;;;;;14.77;100.00;95703.00;4924181;29;20026;-88
2023/03/23 11:11:58;;;;;;;8.47;4.60;;;;;;;14.84;100.00;95711.78;4923237;29;20035;-89
2023/03/23 11:14:38;;;;;;;4.20;1.97;;;;;;;14.74;100.00;95716.63;4955168;29;20047;-88
2023/03/23 11:17:06;;;;;;;5.47;2.60;;;;;;;14.73;100.00;95711.53;4919887;29;20159;-89
2023/03/23 11:19:39;;;;;;;5.63;2.43;;;;;;;14.96;100.00;95709.38;4942473;29;20043;-89
2023/03/23 11:22:15;;;;;;;4.93;1.83;;;;;;;15.09;100.00;95712.06;4930454;29;20039;-88
2023/03/23 11:24:46;;;;;;;2.90;1.10;;;;;;;15.11;100.00;95711.03;4922679;29;20050;-84
2023/03/23 11:27:14;;;;;;;2.80;1.50;;;;;;;15.36;100.00;95701.53;4928755;29;20288;-88
2023/03/23 11:29:58;;;;;;;3.60;1.50;;;;;;;15.47;100.00;95705.41;4932344;29;20200;-90
2023/03/23 11:32:27;;;;;;;4.00;1.40;;;;;;;15.61;100.00;95703.59;4944009;29;20055;-89
2023/03/23 11:34:59;;;;;;;5.32;1.63;;;;;;;15.73;100.00;95707.28;4927557;28;20047;-91
2023/03/23 11:37:29;;;;;;;4.93;1.47;;;;;;;15.71;100.00;95698.72;4929238;28;20442;-88
2023/03/23 11:39:57;;;;;;;2.20;1.20;;;;;;;15.82;100.00;95698.09;4924779;29;20059;-91
2023/03/23 11:42:32;;;;;;;2.80;1.20;;;;;;;15.81;100.00;95693.00;4923651;29;20042;-88
2023/03/23 11:48:26;;;;;;;2.33;1.15;;;;;;;16.17;100.00;95688.06;4950622;29;20051;-87
2023/03/23 11:50:57;;;;;;;2.15;1.30;;;;;;;16.96;100.00;95686.16;4952031;29;20054;-89
2023/03/23 11:53:49;;;;;;;4.45;1.42;;;;;;;16.96;100.00;95689.63;4918294;29;20121;-89
2023/03/23 11:56:30;;;;;;;3.63;1.30;;;;;;;17.22;100.00;95676.41;4922717;29;20031;-89
2023/03/23 11:58:57;;;;;;;5.10;1.52;;;;;;;16.59;100.00;95683.22;4921519;29;20035;-88
2023/03/23 12:01:27;;;;;;;4.03;1.30;;;;;;;16.76;100.00;95686.25;4929027;29;20102;-88
2023/03/23 12:04:22;;;;;;;3.85;1.38;;;;;;;16.81;100.00;95680.31;4922538;29;20034;-90
2023/03/23 12:07:15;;;;;;;3.33;1.60;;;;;;;17.01;100.00;95678.38;4929742;29;20482;-90
2023/03/23 12:09:56;;;;;;;5.00;2.28;;;;;;;17.10;100.00;95682.44;4919051;29;20050;-92
2023/03/23 12:12:47;;;;;;;4.15;2.15;;;;;;;17.00;100.00;95671.44;4949516;29;20839;-93